Hovedside
METAR-TAF:

METAR-TAF

Lufthavner :

Weno, Mikronesia

breddegrad: 07-28N, lengdegrad: 151-51E, høyde over havet: 3 m

Gjeldene værobservasjon

Denne rapporten ble laget for 23 minutter siden, klokken 16:53 UTC
Vind 7 kt fra Øst-nordøst
Temperatur 27°C
Luftfuktighet 84%
Trykk 1011 hPa
Sikt: 24.1 km
Få skyer i en høyde av 1400 ft
Spredte skyer i en høyde av 29000 ft

METAR: PTKK 091653Z 06007KT 15SM FEW014 SCT290 27/24 A2984 RMK SLP106 T02740239

Tid: 03:16 (17:16 UTC)

Varsel

Denne rapporten ble laget for 5 timer og 40 minutter siden, klokken 11:36 UTC
Varsel gyldig fra 09. klokken 12 UTC til 10. klokken 12 UTC
Vind 8 kt fra Øst-nordøst
Sikt: 10 km
Spredte skyer i en høyde av 1600 ft

TAF: PTKK 091136Z 0912/1012 07008KT P6SM SCT016

Værobservasjoner og værvarsel for over 4000 flyplasser (METAR- og TAF-rapporter).

Tilgjengelige stasjoner er representert av de røde og gule prikkene på kartet.

Hold musepekeren over prikken for å se navnet på stasjonen.

Klikk så for å se værobservasjoner og -varsler.

For å forandre kartet kan du klikke på den grønne knappen med svart kryss for å zoome inn, på den grønne knappen med strek for å zoome ut, eller på de grønne pilene for å se tilstøtende kart.


METAR-TAF: